Time;durP1;ratioP1;P1;durP2;ratioP2;P2;SDS_P1;SDS_P2;PMS_P1;PMS_P2;Temp;Humidity;BMP_temperature;BMP_pressure;BME280_temperature;BME280_humidity;BME280_pressure;Samples;Min_cycle;Max_cycle;Signal;HPM_P1;HPM_P2
2022/01/11 00:00:20;;;;;;;14.05;10.43;;;-0.20;99.90;;;;;;5062919;28;20368;-77
2022/01/11 00:02:46;;;;;;;18.33;12.82;;;-0.20;99.90;;;;;;5068604;28;20074;-76
2022/01/11 00:05:31;;;;;;;15.02;11.38;;;-0.10;99.90;;;;;;5078368;28;20040;-77
2022/01/11 00:07:57;;;;;;;17.17;12.25;;;-0.20;99.90;;;;;;5093226;28;20044;-77
2022/01/11 00:10:38;;;;;;;18.02;11.45;;;-0.20;99.90;;;;;;5058004;28;20060;-78
2022/01/11 00:13:04;;;;;;;15.68;11.50;;;-0.20;99.90;;;;;;5076151;28;20075;-77
2022/01/11 00:15:30;;;;;;;24.38;14.40;;;-0.30;99.90;;;;;;5070594;28;20080;-78
2022/01/11 00:17:57;;;;;;;16.50;12.23;;;-0.20;99.90;;;;;;5071231;28;20093;-77
2022/01/11 00:20:24;;;;;;;14.52;10.80;;;-0.40;99.90;;;;;;5067941;28;20063;-77
2022/01/11 00:25:24;;;;;;;17.05;11.95;;;-0.40;99.90;;;;;;5057324;28;20078;-77
2022/01/11 00:27:50;;;;;;;13.63;9.30;;;-0.30;99.90;;;;;;5044903;28;20086;-77
2022/01/11 00:30:16;;;;;;;15.27;11.25;;;-0.30;99.90;;;;;;5073166;28;20075;-76
2022/01/11 00:32:47;;;;;;;18.10;12.00;;;-0.40;99.90;;;;;;5056216;28;20072;-79
2022/01/11 00:35:16;;;;;;;14.05;10.05;;;-0.40;99.90;;;;;;5069864;28;20056;-77
2022/01/11 00:37:42;;;;;;;15.60;10.85;;;-0.40;99.90;;;;;;5052470;28;20392;-77
2022/01/11 00:40:09;;;;;;;15.25;10.73;;;-0.40;99.90;;;;;;5068560;28;20033;-77
2022/01/11 00:42:35;;;;;;;17.73;12.38;;;-0.50;99.90;;;;;;5070883;28;20050;-77
2022/01/11 00:45:06;;;;;;;16.00;11.73;;;-0.40;99.90;;;;;;5057412;28;20400;-77
2022/01/11 00:47:31;;;;;;;15.98;11.68;;;-0.40;99.90;;;;;;5057843;28;20040;-77
2022/01/11 00:49:57;;;;;;;15.83;11.27;;;-0.40;99.90;;;;;;5056240;28;20605;-77
2022/01/11 00:52:23;;;;;;;15.90;10.98;;;-0.50;99.90;;;;;;5056829;28;20383;-77
2022/01/11 00:54:49;;;;;;;18.45;12.43;;;-0.40;99.90;;;;;;5070574;28;20040;-77
2022/01/11 00:57:15;;;;;;;16.10;10.90;;;-0.50;99.90;;;;;;5072134;28;20041;-77
2022/01/11 00:59:41;;;;;;;17.90;12.48;;;-0.50;99.90;;;;;;5070060;28;20033;-77
2022/01/11 01:02:07;;;;;;;17.38;12.13;;;-0.50;99.90;;;;;;5060543;28;20033;-77
2022/01/11 01:04:33;;;;;;;20.98;14.10;;;-0.50;99.90;;;;;;5053408;28;20055;-76
2022/01/11 01:06:59;;;;;;;21.45;14.13;;;-0.40;99.90;;;;;;5061642;28;20032;-78
2022/01/11 01:09:29;;;;;;;22.13;14.38;;;-0.40;99.90;;;;;;5065106;28;20045;-77
2022/01/11 01:11:55;;;;;;;27.70;16.73;;;-0.40;99.90;;;;;;5051589;28;20090;-77
2022/01/11 01:14:21;;;;;;;22.60;14.48;;;-0.50;99.90;;;;;;5098418;28;20048;-77
2022/01/11 01:16:47;;;;;;;18.20;12.98;;;-0.40;99.90;;;;;;5070039;28;20369;-76
2022/01/11 01:19:12;;;;;;;18.88;13.27;;;-0.50;99.90;;;;;;5062512;28;20055;-76
2022/01/11 01:21:39;;;;;;;18.60;13.10;;;-0.40;99.90;;;;;;5058692;28;20052;-76
2022/01/11 01:24:06;;;;;;;;;;;-0.50;99.90;;;;;;5051398;28;20048;-76
2022/01/11 01:26:32;;;;;;;19.83;14.02;;;-0.60;99.90;;;;;;5051324;28;19916;-76
2022/01/11 01:28:59;;;;;;;21.02;13.30;;;-0.70;99.90;;;;;;5067777;28;20085;-76
2022/01/11 01:31:26;;;;;;;19.15;12.80;;;-0.50;99.90;;;;;;5047447;28;20052;-76
2022/01/11 01:33:53;;;;;;;17.23;12.25;;;-0.60;99.90;;;;;;5052856;28;20037;-77
2022/01/11 01:36:19;;;;;;;18.70;13.70;;;-0.70;99.90;;;;;;5074447;28;20053;-76
2022/01/11 01:38:44;;;;;;;19.85;12.93;;;-0.70;99.90;;;;;;5054204;28;20044;-76
2022/01/11 01:41:16;;;;;;;13.33;8.87;;;-0.60;99.90;;;;;;5053673;28;20496;-76
2022/01/11 01:43:45;;;;;;;16.20;11.82;;;-0.70;99.90;;;;;;5070067;28;20294;-76
2022/01/11 01:46:11;;;;;;;17.05;11.55;;;-0.70;99.90;;;;;;5064257;28;20060;-76
2022/01/11 01:48:37;;;;;;;15.25;10.80;;;-0.70;99.90;;;;;;5070367;28;20048;-76
2022/01/11 01:51:05;;;;;;;14.90;10.23;;;-0.60;99.90;;;;;;5065857;28;20227;-76
2022/01/11 01:53:31;;;;;;;16.70;11.05;;;-0.60;99.90;;;;;;5067879;28;20036;-76
2022/01/11 01:55:57;;;;;;;16.73;11.32;;;-0.60;99.90;;;;;;5065598;28;20040;-76
2022/01/11 01:58:24;;;;;;;15.05;10.13;;;-0.70;99.90;;;;;;5050915;28;20049;-77
2022/01/11 02:00:55;;;;;;;14.38;9.93;;;-0.70;99.90;;;;;;5058407;28;20053;-77
2022/01/11 02:03:29;;;;;;;21.92;13.82;;;-0.70;99.90;;;;;;5066414;28;20117;-76
2022/01/11 02:05:56;;;;;;;20.67;12.73;;;-0.80;99.90;;;;;;5057873;28;20055;-76
2022/01/11 02:08:24;;;;;;;23.90;16.05;;;-0.70;99.90;;;;;;5057239;28;20033;-76
2022/01/11 02:10:50;;;;;;;22.85;14.68;;;-0.80;99.90;;;;;;5051134;28;20065;-76
2022/01/11 02:13:16;;;;;;;22.77;15.02;;;-0.60;99.90;;;;;;5061992;28;20083;-76
2022/01/11 02:15:42;;;;;;;22.05;14.40;;;-0.80;99.90;;;;;;5059348;28;20074;-76
2022/01/11 02:18:19;;;;;;;21.70;14.10;;;-0.70;99.90;;;;;;5053940;28;20112;-76
2022/01/11 02:20:46;;;;;;;;;;;-0.60;99.90;;;;;;5047794;28;20033;-76
2022/01/11 02:23:13;;;;;;;21.08;13.77;;;-0.70;99.90;;;;;;5059125;28;19917;-76
2022/01/11 02:25:40;;;;;;;19.65;12.73;;;-0.60;99.90;;;;;;5055788;28;20094;-76
2022/01/11 02:28:06;;;;;;;;;;;-0.60;99.90;;;;;;5068045;28;20045;-77
2022/01/11 02:30:34;;;;;;;23.50;15.80;;;-0.60;99.90;;;;;;5086017;28;19917;-77
2022/01/11 02:33:02;;;;;;;26.90;14.40;;;-0.50;99.90;;;;;;5064036;28;20111;-77
2022/01/11 02:35:28;;;;;;;25.13;15.65;;;-0.50;99.90;;;;;;5058608;28;20149;-77
2022/01/11 02:37:54;;;;;;;22.75;14.15;;;-0.40;99.90;;;;;;5043998;28;20195;-78
2022/01/11 02:40:20;;;;;;;21.83;13.40;;;-0.50;99.90;;;;;;5038061;28;20041;-76
2022/01/11 02:42:45;;;;;;;20.98;13.23;;;-0.30;99.90;;;;;;5051934;28;20298;-77
2022/01/11 02:45:17;;;;;;;20.98;13.48;;;-0.40;99.90;;;;;;5052662;28;20055;-76
2022/01/11 02:47:44;;;;;;;21.60;13.10;;;-0.40;99.90;;;;;;5073035;28;20032;-77
2022/01/11 02:50:11;;;;;;;18.52;11.60;;;-0.40;99.90;;;;;;5071248;28;20098;-77
2022/01/11 02:52:37;;;;;;;22.00;13.52;;;-0.40;99.90;;;;;;5089032;28;20052;-77
2022/01/11 02:55:08;;;;;;;20.83;12.50;;;-0.30;99.90;;;;;;5068968;28;20044;-77
2022/01/11 02:57:34;;;;;;;23.08;13.45;;;-0.30;99.90;;;;;;5071438;28;20090;-76
2022/01/11 03:00:00;;;;;;;24.55;14.38;;;-0.30;99.90;;;;;;5074418;28;20048;-77
2022/01/11 03:02:26;;;;;;;22.33;13.13;;;-0.30;99.90;;;;;;5043588;28;20056;-77
2022/01/11 03:04:51;;;;;;;20.92;14.23;;;-0.20;99.90;;;;;;5068751;28;20049;-78
2022/01/11 03:07:19;;;;;;;30.75;16.65;;;-0.20;99.90;;;;;;5044504;28;20123;-77
2022/01/11 03:10:05;;;;;;;27.42;15.88;;;-0.20;99.90;;;;;;5060049;28;20062;-77
2022/01/11 03:12:31;;;;;;;28.13;16.55;;;-0.10;99.90;;;;;;5062010;28;20119;-77
2022/01/11 03:14:57;;;;;;;29.75;17.55;;;-0.20;99.90;;;;;;5068969;28;20104;-77
2022/01/11 03:17:23;;;;;;;30.08;17.02;;;-0.10;99.90;;;;;;5057947;28;20044;-76
2022/01/11 03:19:49;;;;;;;30.15;16.63;;;0.00;99.90;;;;;;5056433;28;20047;-75
2022/01/11 03:22:15;;;;;;;31.13;16.80;;;-0.10;99.90;;;;;;5073717;28;20051;-75
2022/01/11 03:24:41;;;;;;;32.38;17.58;;;-0.10;99.90;;;;;;5074660;28;20483;-76
2022/01/11 03:27:07;;;;;;;36.47;19.80;;;0.00;99.90;;;;;;5057569;28;20040;-76
2022/01/11 03:29:37;;;;;;;36.35;19.88;;;0.00;99.90;;;;;;5065435;28;20048;-76
2022/01/11 03:32:07;;;;;;;35.15;19.50;;;0.00;99.90;;;;;;5058503;28;20128;-77
2022/01/11 03:34:33;;;;;;;34.95;20.75;;;0.00;99.90;;;;;;5054948;28;20448;-75
2022/01/11 03:37:00;;;;;;;29.13;17.40;;;0.00;99.90;;;;;;5040321;28;20044;-76
2022/01/11 03:39:26;;;;;;;31.92;17.27;;;0.00;99.90;;;;;;5098853;28;20044;-76
2022/01/11 03:41:52;;;;;;;;;;;0.00;99.90;;;;;;5055002;28;20340;-76
2022/01/11 03:44:18;;;;;;;23.70;13.73;;;-0.10;99.90;;;;;;5059840;28;19916;-77
2022/01/11 03:46:44;;;;;;;35.70;19.02;;;0.00;99.90;;;;;;5053357;28;20067;-76
2022/01/11 03:49:09;;;;;;;35.22;18.45;;;-0.10;99.90;;;;;;5071058;28;20037;-77
2022/01/11 03:51:38;;;;;;;32.70;18.52;;;0.00;99.90;;;;;;5069303;28;20048;-77
2022/01/11 03:54:12;;;;;;;33.40;18.75;;;0.00;99.90;;;;;;5054950;28;20060;-77
2022/01/11 03:56:37;;;;;;;36.17;17.77;;;-0.10;99.90;;;;;;5071578;28;20051;-77
2022/01/11 03:59:07;;;;;;;36.80;20.05;;;0.00;99.90;;;;;;5079827;28;20044;-77
2022/01/11 04:01:34;;;;;;;33.72;18.15;;;-0.10;99.90;;;;;;5070372;28;20526;-77
2022/01/11 04:04:00;;;;;;;31.23;16.35;;;0.00;99.90;;;;;;5072152;28;20051;-77
2022/01/11 04:06:27;;;;;;;37.83;20.63;;;0.00;99.90;;;;;;5042572;28;20044;-77
2022/01/11 04:08:53;;;;;;;32.50;17.83;;;0.00;99.90;;;;;;5076266;28;20062;-77
2022/01/11 04:11:19;;;;;;;28.40;15.73;;;-0.10;99.90;;;;;;5064442;28;20052;-77
2022/01/11 04:13:45;;;;;;;33.38;19.00;;;0.00;99.90;;;;;;5065977;28;20037;-77
2022/01/11 04:16:11;;;;;;;31.67;16.80;;;-0.10;99.90;;;;;;5094913;28;20068;-77
2022/01/11 04:18:37;;;;;;;35.00;19.55;;;0.10;99.90;;;;;;5066995;28;20084;-76
2022/01/11 04:21:03;;;;;;;34.95;18.42;;;0.00;99.90;;;;;;5071885;28;20044;-77
2022/01/11 04:23:29;;;;;;;35.38;16.95;;;0.00;99.90;;;;;;5071359;28;20127;-76
2022/01/11 04:25:55;;;;;;;40.10;20.15;;;-0.10;99.90;;;;;;5072373;28;20127;-77
2022/01/11 04:28:23;;;;;;;34.97;18.13;;;-0.10;99.90;;;;;;5072438;28;20108;-77
2022/01/11 04:30:50;;;;;;;38.85;19.42;;;-0.10;99.90;;;;;;5072486;28;20445;-79
2022/01/11 04:33:16;;;;;;;37.38;19.48;;;0.10;99.90;;;;;;5065144;28;20036;-77
2022/01/11 04:35:44;;;;;;;33.92;18.33;;;0.00;99.90;;;;;;5070406;28;20460;-75
2022/01/11 04:38:10;;;;;;;33.53;17.40;;;-0.10;99.90;;;;;;5058067;28;20048;-77
2022/01/11 04:40:36;;;;;;;35.08;17.58;;;0.10;99.90;;;;;;5068113;28;20040;-76
2022/01/11 04:43:02;;;;;;;42.97;21.27;;;0.00;99.90;;;;;;5071097;28;20098;-70
2022/01/11 04:45:28;;;;;;;33.38;19.38;;;0.00;99.90;;;;;;5068947;28;20045;-69
2022/01/11 04:47:56;;;;;;;39.78;19.63;;;0.00;99.90;;;;;;5053574;28;20559;-69
2022/01/11 04:50:25;;;;;;;37.00;18.45;;;-0.10;99.90;;;;;;5069743;28;20675;-70
2022/01/11 04:52:51;;;;;;;39.13;18.27;;;0.00;99.90;;;;;;5070331;28;20036;-69
2022/01/11 04:55:16;;;;;;;32.92;16.77;;;0.00;99.90;;;;;;5061744;28;20048;-69
2022/01/11 04:57:42;;;;;;;38.27;18.77;;;0.00;99.90;;;;;;5054737;28;20044;-70
2022/01/11 05:00:09;;;;;;;32.42;17.10;;;0.00;99.90;;;;;;5068345;28;20287;-69
2022/01/11 05:02:34;;;;;;;;;;;0.10;99.90;;;;;;5067585;28;20444;-70
2022/01/11 05:05:00;;;;;;;37.95;18.95;;;0.10;99.90;;;;;;5093074;28;19931;-69
2022/01/11 05:07:26;;;;;;;37.60;18.98;;;0.00;99.90;;;;;;5054925;28;20102;-70
2022/01/11 05:09:53;;;;;;;34.70;17.65;;;0.00;99.90;;;;;;5052245;28;20044;-69
2022/01/11 05:12:19;;;;;;;36.45;17.65;;;0.10;99.90;;;;;;5069535;28;20496;-69
2022/01/11 05:14:45;;;;;;;39.35;19.73;;;0.20;99.90;;;;;;5063203;28;20039;-70
2022/01/11 05:17:10;;;;;;;39.90;20.00;;;0.20;99.90;;;;;;5063138;28;20527;-70
2022/01/11 05:19:36;;;;;;;38.67;19.60;;;0.20;99.90;;;;;;5067413;28;20875;-70
2022/01/11 05:22:02;;;;;;;37.35;19.25;;;0.20;99.90;;;;;;5069351;28;20040;-70
2022/01/11 05:24:28;;;;;;;40.05;20.27;;;0.20;99.90;;;;;;5058612;28;20491;-70
2022/01/11 05:26:53;;;;;;;32.67;18.85;;;0.10;99.90;;;;;;5061598;28;20118;-70
2022/01/11 05:29:19;;;;;;;36.00;18.80;;;0.30;99.90;;;;;;5075770;28;20041;-70
2022/01/11 05:31:45;;;;;;;35.15;18.30;;;0.20;99.90;;;;;;5066575;28;20052;-70
2022/01/11 05:34:11;;;;;;;37.63;18.98;;;0.20;99.90;;;;;;5069038;28;20054;-70
2022/01/11 05:36:37;;;;;;;30.48;17.77;;;0.20;99.90;;;;;;5069459;28;20057;-70
2022/01/11 05:39:03;;;;;;;33.28;18.92;;;0.20;99.90;;;;;;5069109;28;20044;-70
2022/01/11 05:41:30;;;;;;;33.38;18.25;;;0.30;99.90;;;;;;5036179;28;20514;-69
2022/01/11 05:43:56;;;;;;;26.50;15.63;;;0.20;99.90;;;;;;5062159;28;20120;-76
2022/01/11 05:46:22;;;;;;;30.27;16.90;;;0.30;99.90;;;;;;5056186;28;20131;-76
2022/01/11 05:48:47;;;;;;;27.75;15.63;;;0.30;99.90;;;;;;5037265;28;20040;-76
2022/01/11 05:51:15;;;;;;;29.15;16.02;;;0.30;99.90;;;;;;5048389;28;20060;-76
2022/01/11 05:53:41;;;;;;;29.67;16.13;;;0.30;99.90;;;;;;5058050;28;20040;-76
2022/01/11 05:56:07;;;;;;;31.02;16.23;;;0.10;99.90;;;;;;5063342;28;20047;-76
2022/01/11 05:58:34;;;;;;;36.67;19.13;;;0.10;99.90;;;;;;5041158;28;20099;-76
2022/01/11 06:01:00;;;;;;;35.80;18.08;;;0.30;99.90;;;;;;5054309;28;20124;-69
2022/01/11 06:03:26;;;;;;;35.38;17.05;;;0.10;99.90;;;;;;5063502;28;20102;-69
2022/01/11 06:05:52;;;;;;;30.25;16.67;;;0.20;99.90;;;;;;5064707;28;20044;-76
2022/01/11 06:08:18;;;;;;;33.30;16.63;;;0.20;99.90;;;;;;5061651;28;20041;-76
2022/01/11 06:10:44;;;;;;;34.15;18.17;;;0.10;99.90;;;;;;5053553;28;20124;-76
2022/01/11 06:13:10;;;;;;;29.85;16.23;;;0.10;99.90;;;;;;5060091;28;20048;-77
2022/01/11 06:15:36;;;;;;;31.20;17.58;;;0.10;99.90;;;;;;5040084;28;20087;-76
2022/01/11 06:18:02;;;;;;;29.70;15.05;;;0.20;99.90;;;;;;5089828;28;20098;-76
2022/01/11 06:20:28;;;;;;;27.42;16.23;;;0.00;99.90;;;;;;5062999;28;20143;-76
2022/01/11 06:22:54;;;;;;;28.00;15.50;;;0.10;99.90;;;;;;5069466;28;20489;-75
2022/01/11 06:25:21;;;;;;;26.75;15.48;;;0.00;99.90;;;;;;5042810;28;20113;-77
2022/01/11 06:27:46;;;;;;;;;;;0.20;99.90;;;;;;5055593;28;20036;-76
2022/01/11 06:30:12;;;;;;;31.13;17.55;;;0.10;99.90;;;;;;5067740;28;20329;-76
2022/01/11 06:32:38;;;;;;;35.38;18.70;;;0.00;99.90;;;;;;5055112;28;20048;-76
2022/01/11 06:35:06;;;;;;;32.28;18.70;;;0.10;99.90;;;;;;5057247;28;20120;-76
2022/01/11 06:37:32;;;;;;;33.92;17.48;;;0.00;99.90;;;;;;5052878;28;20712;-76
2022/01/11 06:40:00;;;;;;;31.45;17.55;;;0.20;99.90;;;;;;5071199;28;20037;-79
2022/01/11 06:42:26;;;;;;;37.38;18.50;;;0.00;99.90;;;;;;5066586;28;20040;-78
2022/01/11 06:44:51;;;;;;;29.92;16.30;;;0.10;99.90;;;;;;5054721;28;20078;-77
2022/01/11 06:47:17;;;;;;;27.33;15.70;;;0.00;99.90;;;;;;5072958;28;20036;-78
2022/01/11 06:49:42;;;;;;;27.25;15.02;;;0.10;99.90;;;;;;5072472;28;20075;-75
2022/01/11 06:52:08;;;;;;;31.60;16.55;;;0.10;99.90;;;;;;5072999;28;20036;-77
2022/01/11 06:54:34;;;;;;;32.42;17.52;;;0.10;99.90;;;;;;5049912;28;20052;-75
2022/01/11 06:56:59;;;;;;;30.25;17.27;;;0.20;99.90;;;;;;5073767;28;20094;-75
2022/01/11 06:59:25;;;;;;;30.40;16.98;;;0.00;99.90;;;;;;5072148;28;20041;-76
2022/01/11 07:01:51;;;;;;;29.65;16.50;;;0.10;99.90;;;;;;5053497;28;20068;-76
2022/01/11 07:04:16;;;;;;;32.45;17.27;;;0.10;99.90;;;;;;5040724;28;20045;-75
2022/01/11 07:06:42;;;;;;;38.20;18.77;;;0.10;99.90;;;;;;5056740;28;20048;-75
2022/01/11 07:09:08;;;;;;;33.73;18.47;;;0.10;99.90;;;;;;5023889;28;20311;-76
2022/01/11 07:11:33;;;;;;;34.35;18.15;;;0.10;99.90;;;;;;5066633;28;20072;-75
2022/01/11 07:14:03;;;;;;;33.65;18.70;;;0.00;99.90;;;;;;5066460;28;20050;-74
2022/01/11 07:16:29;;;;;;;34.08;19.50;;;0.10;99.90;;;;;;5065343;28;20437;-76
2022/01/11 07:18:54;;;;;;;32.13;18.70;;;0.20;99.90;;;;;;5072043;28;20052;-76
2022/01/11 07:21:20;;;;;;;33.22;18.95;;;0.20;99.90;;;;;;5073129;28;20040;-76
2022/01/11 07:23:46;;;;;;;31.45;17.85;;;0.20;99.90;;;;;;5064878;28;20048;-77
2022/01/11 07:26:12;;;;;;;36.70;19.15;;;0.00;99.90;;;;;;5067746;28;20048;-77
2022/01/11 07:28:38;;;;;;;33.78;18.75;;;0.10;99.90;;;;;;5074436;28;20025;-77
2022/01/11 07:31:03;;;;;;;38.70;20.15;;;0.20;99.90;;;;;;5069298;28;20041;-76
2022/01/11 07:33:29;;;;;;;33.22;18.40;;;0.00;99.90;;;;;;5055695;28;20110;-77
2022/01/11 07:35:55;;;;;;;31.80;17.52;;;0.00;99.90;;;;;;5038621;28;20104;-77
2022/01/11 07:38:21;;;;;;;34.88;17.60;;;0.20;99.90;;;;;;5072485;28;20036;-77
2022/01/11 07:40:46;;;;;;;28.50;16.50;;;0.10;99.90;;;;;;5071275;28;20044;-77
2022/01/11 07:43:12;;;;;;;30.63;16.13;;;0.10;99.90;;;;;;5054389;28;20093;-76
2022/01/11 07:45:38;;;;;;;32.50;17.73;;;0.20;99.90;;;;;;5062902;28;20521;-77
2022/01/11 07:48:04;;;;;;;36.72;19.73;;;0.20;99.90;;;;;;5062928;28;20645;-77
2022/01/11 07:50:29;;;;;;;35.13;18.90;;;0.10;99.90;;;;;;5072954;28;20063;-77
2022/01/11 07:52:55;;;;;;;38.10;18.80;;;0.10;99.90;;;;;;5072399;28;20055;-79
2022/01/11 07:55:21;;;;;;;35.13;18.40;;;0.20;99.90;;;;;;5090140;28;20386;-77
2022/01/11 07:57:46;;;;;;;30.98;16.90;;;0.20;99.90;;;;;;5088057;28;20064;-76
2022/01/11 08:00:13;;;;;;;36.10;19.63;;;0.10;99.90;;;;;;5062174;28;20036;-77
2022/01/11 08:02:39;;;;;;;33.05;17.75;;;0.30;99.90;;;;;;5070458;28;20170;-77
2022/01/11 08:05:06;;;;;;;35.80;19.42;;;0.20;99.90;;;;;;5055872;28;20177;-77
2022/01/11 08:07:32;;;;;;;32.63;18.58;;;0.30;99.90;;;;;;5047042;28;20049;-77
2022/01/11 08:09:58;;;;;;;37.08;19.60;;;0.30;99.90;;;;;;5093432;28;20041;-77
2022/01/11 08:12:24;;;;;;;32.05;18.40;;;0.20;99.90;;;;;;5072592;28;20032;-79
2022/01/11 08:14:49;;;;;;;33.47;18.27;;;0.30;99.90;;;;;;5072112;28;20503;-79
2022/01/11 08:17:16;;;;;;;33.55;18.52;;;0.30;99.90;;;;;;5053097;28;20049;-79
2022/01/11 08:19:44;;;;;;;34.97;19.25;;;0.30;99.90;;;;;;5099351;28;20071;-78
2022/01/11 08:22:10;;;;;;;33.58;16.60;;;0.40;99.90;;;;;;5055675;28;20094;-77
2022/01/11 08:24:38;;;;;;;34.60;17.50;;;0.40;99.90;;;;;;5065102;28;20487;-76
2022/01/11 08:27:04;;;;;;;35.50;19.15;;;0.40;99.90;;;;;;5052783;28;20044;-77
2022/01/11 08:29:30;;;;;;;31.83;17.42;;;0.30;99.90;;;;;;5065206;28;20051;-74
2022/01/11 08:31:56;;;;;;;35.72;18.08;;;0.40;99.90;;;;;;5061037;28;20044;-78
2022/01/11 08:34:22;;;;;;;38.28;18.15;;;0.30;99.90;;;;;;5052439;28;20044;-77
2022/01/11 08:36:49;;;;;;;37.78;18.45;;;0.40;99.90;;;;;;5070588;28;20080;-78
2022/01/11 08:39:15;;;;;;;36.22;17.90;;;0.50;99.90;;;;;;5033948;28;20048;-80
2022/01/11 08:41:41;;;;;;;34.58;17.85;;;0.40;99.90;;;;;;5055636;28;20113;-78
2022/01/11 08:44:11;;;;;;;32.10;17.17;;;0.40;99.90;;;;;;5071455;28;20045;-78
2022/01/11 08:46:41;;;;;;;30.60;17.35;;;0.50;99.90;;;;;;5048989;28;20080;-78
2022/01/11 08:49:07;;;;;;;35.67;18.92;;;0.50;99.90;;;;;;5056199;28;20064;-78
2022/01/11 08:51:33;;;;;;;31.13;17.17;;;0.30;99.90;;;;;;5064730;28;20111;-78
2022/01/11 08:53:59;;;;;;;35.70;18.45;;;0.40;99.90;;;;;;5055354;28;20432;-78
2022/01/11 08:56:25;;;;;;;36.35;18.33;;;0.50;99.90;;;;;;5054623;28;20066;-78
2022/01/11 08:58:51;;;;;;;31.95;17.38;;;0.50;99.90;;;;;;5063011;28;20049;-77
2022/01/11 09:01:16;;;;;;;29.83;16.98;;;0.40;99.90;;;;;;5054559;28;20045;-77
2022/01/11 09:03:42;;;;;;;25.83;13.85;;;0.40;99.90;;;;;;5037973;28;20044;-77
2022/01/11 09:06:09;;;;;;;33.45;16.98;;;0.40;99.90;;;;;;5072141;28;20043;-77
2022/01/11 09:08:36;;;;;;;;;;;0.30;99.90;;;;;;5070940;28;20050;-77
2022/01/11 09:11:04;;;;;;;31.58;16.55;;;0.30;99.90;;;;;;5053721;28;19920;-77
2022/01/11 09:13:30;;;;;;;32.53;17.25;;;0.40;99.90;;;;;;5066175;28;20080;-77
2022/01/11 09:15:56;;;;;;;33.38;17.50;;;0.30;99.90;;;;;;5052813;28;20508;-77
2022/01/11 09:18:22;;;;;;;31.17;17.10;;;0.30;99.90;;;;;;5067536;28;20097;-78
2022/01/11 09:20:48;;;;;;;30.48;16.33;;;0.40;99.90;;;;;;5054603;28;20044;-77
2022/01/11 09:23:14;;;;;;;28.30;15.45;;;0.30;99.90;;;;;;5068283;28;20129;-77
2022/01/11 09:25:40;;;;;;;26.13;15.27;;;0.30;99.90;;;;;;5059383;28;20048;-77
2022/01/11 09:28:08;;;;;;;28.38;15.35;;;0.30;99.90;;;;;;5072298;28;20084;-79
2022/01/11 09:30:33;;;;;;;28.13;16.40;;;0.30;99.90;;;;;;5054096;28;20052;-79
2022/01/11 09:32:59;;;;;;;24.85;14.60;;;0.40;99.90;;;;;;5070824;28;20049;-78
2022/01/11 09:35:25;;;;;;;17.85;11.05;;;0.30;99.90;;;;;;5070258;28;20407;-78
2022/01/11 09:37:51;;;;;;;25.50;13.95;;;0.30;99.90;;;;;;5053452;28;20789;-78
2022/01/11 09:40:18;;;;;;;25.45;15.27;;;0.40;99.90;;;;;;5068218;28;20123;-79
2022/01/11 09:42:44;;;;;;;25.23;14.70;;;0.30;99.90;;;;;;5068824;28;20054;-71
2022/01/11 09:45:11;;;;;;;26.52;14.10;;;0.40;99.90;;;;;;5068895;28;20047;-71
2022/01/11 09:47:39;;;;;;;28.45;14.93;;;0.40;99.90;;;;;;5068909;28;20071;-71
2022/01/11 09:50:09;;;;;;;25.58;15.07;;;0.30;99.90;;;;;;5069927;28;20083;-78
2022/01/11 09:52:36;;;;;;;24.83;14.35;;;0.40;99.90;;;;;;5054563;28;20053;-78
2022/01/11 09:55:05;;;;;;;24.17;14.60;;;0.40;99.90;;;;;;5070779;28;20045;-78
2022/01/11 09:57:31;;;;;;;21.98;13.85;;;0.40;99.90;;;;;;5071589;28;20704;-78
2022/01/11 09:59:56;;;;;;;17.98;10.90;;;0.50;99.90;;;;;;5071363;28;20048;-78
2022/01/11 10:02:22;;;;;;;25.33;14.10;;;0.50;99.90;;;;;;5054894;28;20045;-78
2022/01/11 10:05:01;;;;;;;26.38;13.88;;;0.40;99.90;;;;;;5071273;28;20044;-78
2022/01/11 10:07:31;;;;;;;23.15;14.80;;;0.40;99.90;;;;;;5070950;28;20041;-78
2022/01/11 10:09:57;;;;;;;22.90;13.63;;;0.40;99.90;;;;;;5037438;28;20064;-79
2022/01/11 10:12:24;;;;;;;26.67;14.75;;;0.40;99.90;;;;;;5071173;28;20510;-78
2022/01/11 10:14:55;;;;;;;22.85;13.80;;;0.40;99.90;;;;;;5071356;28;20102;-79
2022/01/11 10:17:30;;;;;;;21.38;14.23;;;0.50;99.90;;;;;;5069816;28;20044;-78
2022/01/11 10:20:07;;;;;;;22.75;12.68;;;0.50;99.90;;;;;;5063785;28;20087;-78
2022/01/11 10:22:34;;;;;;;25.42;13.80;;;0.40;99.90;;;;;;5066891;28;20129;-78
2022/01/11 10:25:02;;;;;;;22.23;14.02;;;0.50;99.90;;;;;;5072928;28;20057;-78
2022/01/11 10:27:36;;;;;;;25.73;14.45;;;0.40;99.90;;;;;;5066717;28;20072;-79
2022/01/11 10:30:18;;;;;;;26.75;15.65;;;0.50;99.90;;;;;;5067174;28;20036;-78
2022/01/11 10:32:45;;;;;;;23.25;14.07;;;0.40;99.90;;;;;;5045452;28;20134;-78
2022/01/11 10:35:19;;;;;;;24.65;14.48;;;0.40;99.90;;;;;;5070029;28;20040;-78
2022/01/11 10:37:47;;;;;;;26.80;14.77;;;0.60;99.90;;;;;;5062892;28;20178;-78
2022/01/11 10:40:13;;;;;;;23.38;14.57;;;0.50;99.90;;;;;;5067015;28;20640;-78
2022/01/11 10:42:45;;;;;;;26.63;16.30;;;0.50;99.90;;;;;;5064474;28;20091;-78
2022/01/11 10:45:22;;;;;;;26.05;15.75;;;0.60;99.90;;;;;;5061663;28;20480;-78
2022/01/11 10:47:55;;;;;;;24.58;14.95;;;0.60;99.90;;;;;;5047254;28;20114;-78
2022/01/11 10:50:37;;;;;;;23.85;14.75;;;0.60;99.90;;;;;;5049364;28;20036;-78
2022/01/11 10:53:12;;;;;;;23.25;14.65;;;0.70;99.90;;;;;;5063718;28;20123;-78
2022/01/11 10:55:38;;;;;;;23.98;15.48;;;0.80;99.90;;;;;;5061566;28;20041;-78
2022/01/11 10:58:05;;;;;;;;;;;0.80;99.90;;;;;;5060661;28;20454;-78
2022/01/11 11:00:41;;;;;;;21.50;14.52;;;0.80;99.90;;;;;;5059690;28;19923;-78
2022/01/11 11:03:19;;;;;;;23.73;15.00;;;0.80;99.90;;;;;;5067484;28;20051;-79
2022/01/11 11:05:49;;;;;;;24.23;14.82;;;0.90;99.90;;;;;;5064112;28;20527;-78
2022/01/11 11:08:18;;;;;;;22.63;14.32;;;0.90;99.90;;;;;;5071209;28;20483;-78
2022/01/11 11:10:57;;;;;;;20.88;13.60;;;1.10;99.90;;;;;;5073345;28;20057;-78
2022/01/11 11:13:34;;;;;;;24.23;14.45;;;1.50;99.90;;;;;;5073097;28;20086;-78
2022/01/11 11:16:26;;;;;;;21.25;14.13;;;1.80;99.90;;;;;;5073845;28;20507;-78
2022/01/11 11:18:57;;;;;;;23.30;14.90;;;1.90;99.90;;;;;;5072967;28;20087;-76
2022/01/11 11:21:32;;;;;;;22.98;14.52;;;2.10;99.90;;;;;;5056510;28;20052;-77
2022/01/11 11:24:00;;;;;;;20.45;13.40;;;2.20;99.90;;;;;;5060104;28;20504;-77
2022/01/11 11:26:31;;;;;;;27.08;15.40;;;2.30;99.90;;;;;;5040356;28;20492;-77
2022/01/11 11:28:57;;;;;;;22.70;15.30;;;2.30;99.90;;;;;;5070299;28;20486;-77
2022/01/11 11:31:24;;;;;;;25.67;16.08;;;2.50;99.90;;;;;;5074841;28;20028;-77
2022/01/11 11:33:51;;;;;;;22.50;14.48;;;2.50;99.90;;;;;;5057699;28;20045;-76
2022/01/11 11:36:18;;;;;;;22.40;14.55;;;2.60;99.90;;;;;;5062819;28;20045;-77
2022/01/11 11:38:50;;;;;;;21.92;15.05;;;2.90;99.90;;;;;;5066366;28;20060;-77
2022/01/11 11:41:17;;;;;;;21.00;14.43;;;2.90;99.90;;;;;;5063588;28;20043;-78
2022/01/11 11:43:43;;;;;;;22.25;14.38;;;3.00;99.90;;;;;;5072192;28;20037;-77
2022/01/11 11:46:09;;;;;;;23.88;15.02;;;3.10;99.90;;;;;;5072599;28;20175;-77
2022/01/11 11:48:34;;;;;;;23.38;14.23;;;3.10;99.90;;;;;;5070374;28;20486;-78
2022/01/11 11:51:07;;;;;;;23.50;14.10;;;3.00;99.90;;;;;;5060193;28;20053;-76
2022/01/11 11:53:38;;;;;;;25.48;15.10;;;2.90;99.90;;;;;;5070256;28;20048;-77
2022/01/11 11:56:26;;;;;;;22.95;14.43;;;2.70;99.90;;;;;;5056643;28;20480;-76
2022/01/11 11:58:55;;;;;;;24.23;14.20;;;2.70;99.90;;;;;;5072296;28;20057;-76
2022/01/11 12:01:50;;;;;;;25.65;15.65;;;2.60;99.90;;;;;;5065425;28;20127;-76
2022/01/11 12:04:19;;;;;;;26.52;15.77;;;2.60;99.90;;;;;;5058101;28;20053;-77
2022/01/11 12:06:46;;;;;;;21.52;13.45;;;2.60;99.90;;;;;;5071700;28;20083;-76
2022/01/11 12:09:15;;;;;;;21.35;13.02;;;2.60;99.90;;;;;;5071492;28;20040;-76
2022/01/11 12:11:45;;;;;;;23.00;13.52;;;2.60;99.90;;;;;;5072144;28;20090;-76
2022/01/11 12:14:35;;;;;;;20.85;13.65;;;2.60;99.90;;;;;;5058532;28;20040;-76
2022/01/11 12:17:23;;;;;;;25.52;14.30;;;2.50;99.90;;;;;;5069889;28;20076;-76
2022/01/11 12:19:51;;;;;;;19.77;12.98;;;2.50;99.90;;;;;;5071467;28;20044;-76
2022/01/11 12:22:23;;;;;;;22.60;13.85;;;2.50;99.90;;;;;;5080767;28;20115;-77
2022/01/11 12:24:51;;;;;;;23.02;13.73;;;2.50;99.90;;;;;;5069264;28;20056;-76
2022/01/11 12:27:21;;;;;;;22.98;13.60;;;2.60;99.90;;;;;;5069661;28;20182;-76
2022/01/11 12:30:01;;;;;;;23.30;14.00;;;2.60;99.90;;;;;;5067424;28;20048;-76
2022/01/11 12:32:29;;;;;;;22.48;13.70;;;2.60;99.90;;;;;;5071532;28;20047;-77
2022/01/11 12:35:08;;;;;;;21.40;13.20;;;2.60;99.90;;;;;;5071385;28;20053;-77
2022/01/11 12:37:43;;;;;;;20.17;12.57;;;2.60;99.90;;;;;;5054819;28;20169;-77
2022/01/11 12:40:19;;;;;;;20.48;12.90;;;2.60;99.90;;;;;;5065425;28;20044;-77